sensor_id;sensor_type;location;lat;lon;timestamp;temperature;humidity
19966;DHT22;10144;50.874;4.762;2023-07-09T00:00:13;26.90;99.90
19966;DHT22;10144;50.874;4.762;2023-07-09T00:02:39;26.90;99.90
19966;DHT22;10144;50.874;4.762;2023-07-09T00:05:12;26.80;99.90
19966;DHT22;10144;50.874;4.762;2023-07-09T00:07:41;26.80;99.90
19966;DHT22;10144;50.874;4.762;2023-07-09T00:10:20;26.70;99.90
19966;DHT22;10144;50.874;4.762;2023-07-09T00:12:52;26.70;99.90
19966;DHT22;10144;50.874;4.762;2023-07-09T00:15:17;26.60;99.90
19966;DHT22;10144;50.874;4.762;2023-07-09T00:17:44;26.50;99.90
19966;DHT22;10144;50.874;4.762;2023-07-09T00:20:15;26.50;99.90
19966;DHT22;10144;50.874;4.762;2023-07-09T00:22:43;26.40;99.90
19966;DHT22;10144;50.874;4.762;2023-07-09T00:25:19;26.30;99.90
19966;DHT22;10144;50.874;4.762;2023-07-09T00:27:47;26.30;99.90
19966;DHT22;10144;50.874;4.762;2023-07-09T00:30:20;26.10;99.90
19966;DHT22;10144;50.874;4.762;2023-07-09T00:32:49;26.00;99.90
19966;DHT22;10144;50.874;4.762;2023-07-09T00:35:16;25.90;99.90
19966;DHT22;10144;50.874;4.762;2023-07-09T00:37:47;25.90;99.90
19966;DHT22;10144;50.874;4.762;2023-07-09T00:40:19;25.90;99.90
19966;DHT22;10144;50.874;4.762;2023-07-09T00:42:54;25.90;99.90
19966;DHT22;10144;50.874;4.762;2023-07-09T00:45:24;25.80;99.90
19966;DHT22;10144;50.874;4.762;2023-07-09T00:47:56;25.80;99.90
19966;DHT22;10144;50.874;4.762;2023-07-09T00:50:37;25.70;99.90
19966;DHT22;10144;50.874;4.762;2023-07-09T00:53:29;25.60;99.90
19966;DHT22;10144;50.874;4.762;2023-07-09T00:56:07;25.70;99.90
19966;DHT22;10144;50.874;4.762;2023-07-09T00:58:38;25.60;99.90
19966;DHT22;10144;50.874;4.762;2023-07-09T01:01:09;25.50;99.90
19966;DHT22;10144;50.874;4.762;2023-07-09T01:03:44;25.50;99.90
19966;DHT22;10144;50.874;4.762;2023-07-09T01:06:10;25.40;99.90
19966;DHT22;10144;50.874;4.762;2023-07-09T01:08:39;25.30;99.90
19966;DHT22;10144;50.874;4.762;2023-07-09T01:11:20;25.30;99.90
19966;DHT22;10144;50.874;4.762;2023-07-09T01:13:59;25.20;99.90
19966;DHT22;10144;50.874;4.762;2023-07-09T01:16:30;25.10;99.90
19966;DHT22;10144;50.874;4.762;2023-07-09T01:19:04;25.00;99.90
19966;DHT22;10144;50.874;4.762;2023-07-09T01:21:30;25.20;99.90
19966;DHT22;10144;50.874;4.762;2023-07-09T01:24:09;25.20;99.90
19966;DHT22;10144;50.874;4.762;2023-07-09T01:26:42;25.20;99.90
19966;DHT22;10144;50.874;4.762;2023-07-09T01:29:09;25.10;99.90
19966;DHT22;10144;50.874;4.762;2023-07-09T01:31:38;25.00;99.90
19966;DHT22;10144;50.874;4.762;2023-07-09T01:34:05;25.00;99.90
19966;DHT22;10144;50.874;4.762;2023-07-09T01:36:37;25.10;99.90
19966;DHT22;10144;50.874;4.762;2023-07-09T01:39:05;25.00;99.90
19966;DHT22;10144;50.874;4.762;2023-07-09T01:41:34;25.10;99.90
19966;DHT22;10144;50.874;4.762;2023-07-09T01:43:59;25.00;99.90
19966;DHT22;10144;50.874;4.762;2023-07-09T01:46:27;25.00;99.90
19966;DHT22;10144;50.874;4.762;2023-07-09T01:48:53;24.90;99.90
19966;DHT22;10144;50.874;4.762;2023-07-09T01:51:18;24.90;99.90
19966;DHT22;10144;50.874;4.762;2023-07-09T01:53:44;24.90;99.90
19966;DHT22;10144;50.874;4.762;2023-07-09T01:56:11;24.90;99.90
19966;DHT22;10144;50.874;4.762;2023-07-09T01:58:37;24.90;99.90
19966;DHT22;10144;50.874;4.762;2023-07-09T02:01:12;24.90;99.90
19966;DHT22;10144;50.874;4.762;2023-07-09T02:03:40;25.00;99.90
19966;DHT22;10144;50.874;4.762;2023-07-09T02:06:07;25.00;99.90
19966;DHT22;10144;50.874;4.762;2023-07-09T02:08:40;24.90;99.90
19966;DHT22;10144;50.874;4.762;2023-07-09T02:11:05;24.90;99.90
19966;DHT22;10144;50.874;4.762;2023-07-09T02:13:31;24.70;99.90
19966;DHT22;10144;50.874;4.762;2023-07-09T02:15:58;24.70;99.90
19966;DHT22;10144;50.874;4.762;2023-07-09T02:18:27;24.70;99.90
19966;DHT22;10144;50.874;4.762;2023-07-09T02:20:53;24.70;99.90
19966;DHT22;10144;50.874;4.762;2023-07-09T02:23:30;24.70;99.90
19966;DHT22;10144;50.874;4.762;2023-07-09T02:25:57;24.70;99.90
19966;DHT22;10144;50.874;4.762;2023-07-09T02:28:25;24.70;99.90
19966;DHT22;10144;50.874;4.762;2023-07-09T02:30:57;24.60;99.90
19966;DHT22;10144;50.874;4.762;2023-07-09T02:33:25;24.60;99.90
19966;DHT22;10144;50.874;4.762;2023-07-09T02:35:54;24.50;99.90
19966;DHT22;10144;50.874;4.762;2023-07-09T02:38:20;24.40;99.90
19966;DHT22;10144;50.874;4.762;2023-07-09T02:40:46;24.40;99.90
19966;DHT22;10144;50.874;4.762;2023-07-09T02:43:15;24.30;99.90
19966;DHT22;10144;50.874;4.762;2023-07-09T02:45:40;24.30;99.90
19966;DHT22;10144;50.874;4.762;2023-07-09T02:48:09;24.30;99.90
19966;DHT22;10144;50.874;4.762;2023-07-09T02:50:37;24.30;99.90
19966;DHT22;10144;50.874;4.762;2023-07-09T02:53:03;24.20;99.90
19966;DHT22;10144;50.874;4.762;2023-07-09T02:55:34;24.20;99.90
19966;DHT22;10144;50.874;4.762;2023-07-09T02:58:00;24.30;99.90
19966;DHT22;10144;50.874;4.762;2023-07-09T03:00:27;24.40;99.90
19966;DHT22;10144;50.874;4.762;2023-07-09T03:02:59;24.40;99.90
19966;DHT22;10144;50.874;4.762;2023-07-09T03:05:26;24.30;99.90
19966;DHT22;10144;50.874;4.762;2023-07-09T03:07:52;24.30;99.90
19966;DHT22;10144;50.874;4.762;2023-07-09T03:10:20;24.20;99.90
19966;DHT22;10144;50.874;4.762;2023-07-09T03:12:50;24.00;99.90
19966;DHT22;10144;50.874;4.762;2023-07-09T03:15:16;24.00;99.90
19966;DHT22;10144;50.874;4.762;2023-07-09T03:17:42;24.10;99.90
19966;DHT22;10144;50.874;4.762;2023-07-09T03:20:08;24.20;99.90
19966;DHT22;10144;50.874;4.762;2023-07-09T03:22:35;24.20;99.90
19966;DHT22;10144;50.874;4.762;2023-07-09T03:25:01;24.20;99.90
19966;DHT22;10144;50.874;4.762;2023-07-09T03:27:32;24.10;99.90
19966;DHT22;10144;50.874;4.762;2023-07-09T03:30:01;23.90;99.90
19966;DHT22;10144;50.874;4.762;2023-07-09T03:32:30;24.00;99.90
19966;DHT22;10144;50.874;4.762;2023-07-09T03:34:57;24.00;99.90
19966;DHT22;10144;50.874;4.762;2023-07-09T03:37:23;24.00;99.90
19966;DHT22;10144;50.874;4.762;2023-07-09T03:39:49;23.90;99.90
19966;DHT22;10144;50.874;4.762;2023-07-09T03:42:16;23.80;99.90
19966;DHT22;10144;50.874;4.762;2023-07-09T03:44:42;23.70;99.90
19966;DHT22;10144;50.874;4.762;2023-07-09T03:47:10;23.70;99.90
19966;DHT22;10144;50.874;4.762;2023-07-09T03:49:38;23.70;99.90
19966;DHT22;10144;50.874;4.762;2023-07-09T03:52:04;23.70;99.90
19966;DHT22;10144;50.874;4.762;2023-07-09T03:54:30;23.80;99.90
19966;DHT22;10144;50.874;4.762;2023-07-09T03:56:56;23.80;99.90
19966;DHT22;10144;50.874;4.762;2023-07-09T03:59:25;23.80;99.90
19966;DHT22;10144;50.874;4.762;2023-07-09T04:01:50;23.80;99.90
19966;DHT22;10144;50.874;4.762;2023-07-09T04:04:16;23.80;99.90
19966;DHT22;10144;50.874;4.762;2023-07-09T04:06:48;23.80;99.90
19966;DHT22;10144;50.874;4.762;2023-07-09T04:09:14;23.80;99.90
19966;DHT22;10144;50.874;4.762;2023-07-09T04:11:39;23.90;99.90
19966;DHT22;10144;50.874;4.762;2023-07-09T04:14:05;23.90;99.90
19966;DHT22;10144;50.874;4.762;2023-07-09T04:16:32;23.90;99.90
19966;DHT22;10144;50.874;4.762;2023-07-09T04:18:59;23.80;99.90
19966;DHT22;10144;50.874;4.762;2023-07-09T04:21:25;23.80;99.90
19966;DHT22;10144;50.874;4.762;2023-07-09T04:23:51;23.90;99.90
19966;DHT22;10144;50.874;4.762;2023-07-09T04:26:20;23.90;99.90
19966;DHT22;10144;50.874;4.762;2023-07-09T04:28:47;23.90;99.90
19966;DHT22;10144;50.874;4.762;2023-07-09T04:31:12;23.90;99.90
19966;DHT22;10144;50.874;4.762;2023-07-09T04:33:38;23.90;99.90
19966;DHT22;10144;50.874;4.762;2023-07-09T04:36:05;24.00;99.90
19966;DHT22;10144;50.874;4.762;2023-07-09T04:38:34;24.10;99.90
19966;DHT22;10144;50.874;4.762;2023-07-09T04:41:00;24.20;99.90
19966;DHT22;10144;50.874;4.762;2023-07-09T04:43:28;24.30;99.90
19966;DHT22;10144;50.874;4.762;2023-07-09T04:45:54;24.30;99.90
19966;DHT22;10144;50.874;4.762;2023-07-09T04:48:20;24.40;99.90
19966;DHT22;10144;50.874;4.762;2023-07-09T04:50:47;24.50;99.90
19966;DHT22;10144;50.874;4.762;2023-07-09T04:53:21;24.60;99.90
19966;DHT22;10144;50.874;4.762;2023-07-09T04:55:52;24.80;99.90
19966;DHT22;10144;50.874;4.762;2023-07-09T04:58:24;24.90;99.90
19966;DHT22;10144;50.874;4.762;2023-07-09T05:00:51;25.00;99.90
19966;DHT22;10144;50.874;4.762;2023-07-09T05:03:20;25.10;99.90
19966;DHT22;10144;50.874;4.762;2023-07-09T05:05:47;25.20;99.90
19966;DHT22;10144;50.874;4.762;2023-07-09T05:08:15;25.40;99.90
19966;DHT22;10144;50.874;4.762;2023-07-09T05:10:51;25.60;99.90
19966;DHT22;10144;50.874;4.762;2023-07-09T05:13:18;25.80;99.90
19966;DHT22;10144;50.874;4.762;2023-07-09T05:15:46;26.00;99.90
19966;DHT22;10144;50.874;4.762;2023-07-09T05:18:15;26.20;99.90
19966;DHT22;10144;50.874;4.762;2023-07-09T05:20:46;26.50;99.90
19966;DHT22;10144;50.874;4.762;2023-07-09T05:23:13;26.90;99.90
19966;DHT22;10144;50.874;4.762;2023-07-09T05:25:40;27.40;99.90
19966;DHT22;10144;50.874;4.762;2023-07-09T05:28:08;27.70;99.90
19966;DHT22;10144;50.874;4.762;2023-07-09T05:30:35;28.10;99.90
19966;DHT22;10144;50.874;4.762;2023-07-09T05:33:07;28.50;99.90
19966;DHT22;10144;50.874;4.762;2023-07-09T05:35:33;28.80;99.90
19966;DHT22;10144;50.874;4.762;2023-07-09T05:37:59;29.10;99.90
19966;DHT22;10144;50.874;4.762;2023-07-09T05:40:28;29.40;99.90
19966;DHT22;10144;50.874;4.762;2023-07-09T05:43:00;29.70;99.90
19966;DHT22;10144;50.874;4.762;2023-07-09T05:45:27;29.90;99.90
19966;DHT22;10144;50.874;4.762;2023-07-09T05:48:00;30.10;99.90
19966;DHT22;10144;50.874;4.762;2023-07-09T05:50:34;30.20;99.90
19966;DHT22;10144;50.874;4.762;2023-07-09T05:53:00;30.60;99.90
19966;DHT22;10144;50.874;4.762;2023-07-09T05:55:26;30.90;99.90
19966;DHT22;10144;50.874;4.762;2023-07-09T05:57:53;31.10;99.90
19966;DHT22;10144;50.874;4.762;2023-07-09T06:00:20;31.30;99.90
19966;DHT22;10144;50.874;4.762;2023-07-09T06:02:46;31.30;99.90
19966;DHT22;10144;50.874;4.762;2023-07-09T06:05:12;31.40;99.90
19966;DHT22;10144;50.874;4.762;2023-07-09T06:07:39;31.50;99.90
19966;DHT22;10144;50.874;4.762;2023-07-09T06:10:07;31.60;99.90
19966;DHT22;10144;50.874;4.762;2023-07-09T06:12:34;31.70;99.90
19966;DHT22;10144;50.874;4.762;2023-07-09T06:15:00;31.70;99.90
19966;DHT22;10144;50.874;4.762;2023-07-09T06:17:26;31.80;99.90
19966;DHT22;10144;50.874;4.762;2023-07-09T06:19:54;31.70;99.90
19966;DHT22;10144;50.874;4.762;2023-07-09T06:22:21;31.60;99.90
19966;DHT22;10144;50.874;4.762;2023-07-09T06:24:46;31.50;99.90
19966;DHT22;10144;50.874;4.762;2023-07-09T06:27:12;31.50;99.90
19966;DHT22;10144;50.874;4.762;2023-07-09T06:29:38;31.60;99.90
19966;DHT22;10144;50.874;4.762;2023-07-09T06:32:06;31.70;99.90
19966;DHT22;10144;50.874;4.762;2023-07-09T06:34:32;31.90;99.90
19966;DHT22;10144;50.874;4.762;2023-07-09T06:36:58;32.00;99.90
19966;DHT22;10144;50.874;4.762;2023-07-09T06:39:24;32.20;99.90
19966;DHT22;10144;50.874;4.762;2023-07-09T06:41:50;32.50;99.90
19966;DHT22;10144;50.874;4.762;2023-07-09T06:44:15;32.60;99.90
19966;DHT22;10144;50.874;4.762;2023-07-09T06:46:41;32.80;99.90
19966;DHT22;10144;50.874;4.762;2023-07-09T06:49:06;32.60;99.90
19966;DHT22;10144;50.874;4.762;2023-07-09T06:51:32;32.70;99.90
19966;DHT22;10144;50.874;4.762;2023-07-09T06:53:58;32.90;99.90
19966;DHT22;10144;50.874;4.762;2023-07-09T06:56:24;33.10;99.90
19966;DHT22;10144;50.874;4.762;2023-07-09T06:58:49;33.30;99.90
19966;DHT22;10144;50.874;4.762;2023-07-09T07:01:15;33.30;99.90
19966;DHT22;10144;50.874;4.762;2023-07-09T07:03:41;33.50;99.90
19966;DHT22;10144;50.874;4.762;2023-07-09T07:06:06;33.70;99.90
19966;DHT22;10144;50.874;4.762;2023-07-09T07:08:33;34.10;99.90
19966;DHT22;10144;50.874;4.762;2023-07-09T07:11:01;34.20;99.90
19966;DHT22;10144;50.874;4.762;2023-07-09T07:13:32;34.60;99.90
19966;DHT22;10144;50.874;4.762;2023-07-09T07:15:59;34.80;99.90
19966;DHT22;10144;50.874;4.762;2023-07-09T07:18:24;35.10;99.90
19966;DHT22;10144;50.874;4.762;2023-07-09T07:20:51;35.30;99.90
19966;DHT22;10144;50.874;4.762;2023-07-09T07:23:17;35.50;99.90
19966;DHT22;10144;50.874;4.762;2023-07-09T07:25:44;35.60;99.90
19966;DHT22;10144;50.874;4.762;2023-07-09T07:28:09;35.60;99.90
19966;DHT22;10144;50.874;4.762;2023-07-09T07:30:35;35.80;99.90
19966;DHT22;10144;50.874;4.762;2023-07-09T07:33:00;35.70;99.90
19966;DHT22;10144;50.874;4.762;2023-07-09T07:35:26;35.60;99.90
19966;DHT22;10144;50.874;4.762;2023-07-09T07:37:52;35.70;99.90
19966;DHT22;10144;50.874;4.762;2023-07-09T07:40:17;36.10;99.90
19966;DHT22;10144;50.874;4.762;2023-07-09T07:42:43;36.50;99.90
19966;DHT22;10144;50.874;4.762;2023-07-09T07:45:09;37.10;99.90
19966;DHT22;10144;50.874;4.762;2023-07-09T07:47:35;37.40;99.90
19966;DHT22;10144;50.874;4.762;2023-07-09T07:50:01;37.90;99.90
19966;DHT22;10144;50.874;4.762;2023-07-09T07:52:28;37.90;99.90
19966;DHT22;10144;50.874;4.762;2023-07-09T07:54:54;38.10;99.90
19966;DHT22;10144;50.874;4.762;2023-07-09T07:57:23;38.40;99.90
19966;DHT22;10144;50.874;4.762;2023-07-09T07:59:49;38.30;99.90
19966;DHT22;10144;50.874;4.762;2023-07-09T08:02:15;38.10;99.90
19966;DHT22;10144;50.874;4.762;2023-07-09T08:04:41;38.50;99.90
19966;DHT22;10144;50.874;4.762;2023-07-09T08:07:10;38.60;99.90
19966;DHT22;10144;50.874;4.762;2023-07-09T08:09:36;38.80;99.90
19966;DHT22;10144;50.874;4.762;2023-07-09T08:12:03;38.40;99.90
19966;DHT22;10144;50.874;4.762;2023-07-09T08:14:34;38.30;99.90
19966;DHT22;10144;50.874;4.762;2023-07-09T08:17:00;38.80;99.90
19966;DHT22;10144;50.874;4.762;2023-07-09T08:19:26;38.90;99.90
19966;DHT22;10144;50.874;4.762;2023-07-09T08:21:51;39.20;99.90
19966;DHT22;10144;50.874;4.762;2023-07-09T08:24:17;38.90;99.90
19966;DHT22;10144;50.874;4.762;2023-07-09T08:26:43;39.20;99.90
19966;DHT22;10144;50.874;4.762;2023-07-09T08:29:08;39.70;99.90
19966;DHT22;10144;50.874;4.762;2023-07-09T08:31:34;39.80;99.90
19966;DHT22;10144;50.874;4.762;2023-07-09T08:34:00;40.20;99.90
19966;DHT22;10144;50.874;4.762;2023-07-09T08:36:26;40.60;99.90
19966;DHT22;10144;50.874;4.762;2023-07-09T08:38:52;40.80;99.90
19966;DHT22;10144;50.874;4.762;2023-07-09T08:47:24;41.00;99.90
19966;DHT22;10144;50.874;4.762;2023-07-09T08:50:02;40.80;99.90
19966;DHT22;10144;50.874;4.762;2023-07-09T08:52:42;41.30;99.90
19966;DHT22;10144;50.874;4.762;2023-07-09T08:55:12;40.80;99.40
19966;DHT22;10144;50.874;4.762;2023-07-09T08:57:41;41.30;99.40
19966;DHT22;10144;50.874;4.762;2023-07-09T09:00:20;42.00;98.40
19966;DHT22;10144;50.874;4.762;2023-07-09T09:02:54;42.50;97.40
19966;DHT22;10144;50.874;4.762;2023-07-09T09:05:23;42.70;95.70
19966;DHT22;10144;50.874;4.762;2023-07-09T09:07:57;42.80;94.20
19966;DHT22;10144;50.874;4.762;2023-07-09T09:11:14;42.60;93.40
19966;DHT22;10144;50.874;4.762;2023-07-09T09:13:38;42.10;95.30
19966;DHT22;10144;50.874;4.762;2023-07-09T09:16:10;41.70;94.80
19966;DHT22;10144;50.874;4.762;2023-07-09T09:18:42;42.10;94.70
19966;DHT22;10144;50.874;4.762;2023-07-09T09:21:16;42.10;96.30
19966;DHT22;10144;50.874;4.762;2023-07-09T09:23:57;41.70;94.60
19966;DHT22;10144;50.874;4.762;2023-07-09T09:26:32;42.10;94.10
19966;DHT22;10144;50.874;4.762;2023-07-09T09:28:59;42.00;94.00
19966;DHT22;10144;50.874;4.762;2023-07-09T09:31:27;41.40;93.50
19966;DHT22;10144;50.874;4.762;2023-07-09T09:33:53;41.30;93.70
19966;DHT22;10144;50.874;4.762;2023-07-09T09:36:22;41.60;94.10
19966;DHT22;10144;50.874;4.762;2023-07-09T09:38:48;42.00;94.10
19966;DHT22;10144;50.874;4.762;2023-07-09T09:41:21;42.40;93.30
19966;DHT22;10144;50.874;4.762;2023-07-09T09:43:48;42.50;93.30
19966;DHT22;10144;50.874;4.762;2023-07-09T09:46:33;42.80;91.60
19966;DHT22;10144;50.874;4.762;2023-07-09T09:49:02;42.70;91.50
19966;DHT22;10144;50.874;4.762;2023-07-09T09:51:33;42.80;93.50
19966;DHT22;10144;50.874;4.762;2023-07-09T09:54:00;42.30;91.80
19966;DHT22;10144;50.874;4.762;2023-07-09T09:56:36;42.40;91.50
19966;DHT22;10144;50.874;4.762;2023-07-09T09:59:03;42.50;91.60
19966;DHT22;10144;50.874;4.762;2023-07-09T10:01:34;42.30;91.80
19966;DHT22;10144;50.874;4.762;2023-07-09T10:04:01;42.10;92.40
19966;DHT22;10144;50.874;4.762;2023-07-09T10:06:42;42.10;92.90
19966;DHT22;10144;50.874;4.762;2023-07-09T10:11:53;41.70;92.00
19966;DHT22;10144;50.874;4.762;2023-07-09T10:14:31;41.90;92.80
19966;DHT22;10144;50.874;4.762;2023-07-09T10:17:12;42.10;92.50
19966;DHT22;10144;50.874;4.762;2023-07-09T10:19:58;42.10;92.00
19966;DHT22;10144;50.874;4.762;2023-07-09T10:22:35;40.80;93.60
19966;DHT22;10144;50.874;4.762;2023-07-09T10:28:31;39.30;96.20
19966;DHT22;10144;50.874;4.762;2023-07-09T10:39:32;37.40;96.50
19966;DHT22;10144;50.874;4.762;2023-07-09T10:42:00;36.60;98.00
19966;DHT22;10144;50.874;4.762;2023-07-09T10:44:38;36.10;98.40
19966;DHT22;10144;50.874;4.762;2023-07-09T10:47:13;35.00;99.90
19966;DHT22;10144;50.874;4.762;2023-07-09T10:49:45;34.80;99.90
19966;DHT22;10144;50.874;4.762;2023-07-09T10:52:32;34.40;99.90
19966;DHT22;10144;50.874;4.762;2023-07-09T10:57:42;33.90;99.90
19966;DHT22;10144;50.874;4.762;2023-07-09T11:00:14;33.60;99.90
19966;DHT22;10144;50.874;4.762;2023-07-09T11:02:42;33.30;99.90
19966;DHT22;10144;50.874;4.762;2023-07-09T11:05:08;33.00;99.90
19966;DHT22;10144;50.874;4.762;2023-07-09T11:07:48;32.90;99.90
19966;DHT22;10144;50.874;4.762;2023-07-09T11:10:30;32.60;99.90
19966;DHT22;10144;50.874;4.762;2023-07-09T11:15:36;31.50;99.90
19966;DHT22;10144;50.874;4.762;2023-07-09T11:18:06;31.20;99.90
19966;DHT22;10144;50.874;4.762;2023-07-09T11:20:41;30.70;99.90
19966;DHT22;10144;50.874;4.762;2023-07-09T11:23:21;30.50;99.90
19966;DHT22;10144;50.874;4.762;2023-07-09T11:25:49;30.30;99.90
19966;DHT22;10144;50.874;4.762;2023-07-09T11:28:37;30.00;99.90
19966;DHT22;10144;50.874;4.762;2023-07-09T11:31:36;29.60;99.90
19966;DHT22;10144;50.874;4.762;2023-07-09T11:41:46;29.10;99.90
19966;DHT22;10144;50.874;4.762;2023-07-09T11:44:22;28.80;99.90
19966;DHT22;10144;50.874;4.762;2023-07-09T11:47:13;28.70;99.90
19966;DHT22;10144;50.874;4.762;2023-07-09T11:49:56;28.40;99.90
19966;DHT22;10144;50.874;4.762;2023-07-09T11:52:33;28.10;99.90
19966;DHT22;10144;50.874;4.762;2023-07-09T11:55:20;27.80;99.90
19966;DHT22;10144;50.874;4.762;2023-07-09T11:57:48;27.60;99.90
19966;DHT22;10144;50.874;4.762;2023-07-09T12:00:15;27.30;99.90
19966;DHT22;10144;50.874;4.762;2023-07-09T12:02:40;27.20;99.90
19966;DHT22;10144;50.874;4.762;2023-07-09T12:05:06;27.10;99.90
19966;DHT22;10144;50.874;4.762;2023-07-09T12:07:32;26.90;99.90
19966;DHT22;10144;50.874;4.762;2023-07-09T12:10:03;26.80;99.90
19966;DHT22;10144;50.874;4.762;2023-07-09T12:12:29;26.70;99.90
19966;DHT22;10144;50.874;4.762;2023-07-09T12:14:55;26.60;99.90
19966;DHT22;10144;50.874;4.762;2023-07-09T12:17:26;26.50;99.90
19966;DHT22;10144;50.874;4.762;2023-07-09T12:19:52;26.40;99.90
19966;DHT22;10144;50.874;4.762;2023-07-09T12:22:22;26.30;99.90
19966;DHT22;10144;50.874;4.762;2023-07-09T12:24:49;26.20;99.90
19966;DHT22;10144;50.874;4.762;2023-07-09T12:27:26;26.10;99.90
19966;DHT22;10144;50.874;4.762;2023-07-09T12:29:56;26.00;99.90
19966;DHT22;10144;50.874;4.762;2023-07-09T12:32:23;26.10;99.90
19966;DHT22;10144;50.874;4.762;2023-07-09T12:34:53;26.20;99.90
19966;DHT22;10144;50.874;4.762;2023-07-09T12:37:20;26.30;99.90
19966;DHT22;10144;50.874;4.762;2023-07-09T12:39:49;26.30;99.90
19966;DHT22;10144;50.874;4.762;2023-07-09T12:42:20;26.10;99.90
19966;DHT22;10144;50.874;4.762;2023-07-09T12:44:46;25.90;99.90
19966;DHT22;10144;50.874;4.762;2023-07-09T12:47:15;25.70;99.90
19966;DHT22;10144;50.874;4.762;2023-07-09T12:49:43;25.40;99.90
19966;DHT22;10144;50.874;4.762;2023-07-09T12:52:17;24.70;99.90
19966;DHT22;10144;50.874;4.762;2023-07-09T12:54:56;24.10;99.90
19966;DHT22;10144;50.874;4.762;2023-07-09T12:57:23;23.70;99.90
19966;DHT22;10144;50.874;4.762;2023-07-09T12:59:49;23.40;99.90
19966;DHT22;10144;50.874;4.762;2023-07-09T13:02:19;23.30;99.90
19966;DHT22;10144;50.874;4.762;2023-07-09T13:04:45;23.20;99.90
19966;DHT22;10144;50.874;4.762;2023-07-09T13:09:50;22.90;99.90
19966;DHT22;10144;50.874;4.762;2023-07-09T13:12:16;22.90;99.90
19966;DHT22;10144;50.874;4.762;2023-07-09T13:14:41;22.90;99.90
19966;DHT22;10144;50.874;4.762;2023-07-09T13:17:09;22.70;99.90
19966;DHT22;10144;50.874;4.762;2023-07-09T13:19:35;22.60;99.90
19966;DHT22;10144;50.874;4.762;2023-07-09T13:22:02;22.60;99.90
19966;DHT22;10144;50.874;4.762;2023-07-09T13:24:30;22.50;99.90
19966;DHT22;10144;50.874;4.762;2023-07-09T13:26:58;22.50;99.90
19966;DHT22;10144;50.874;4.762;2023-07-09T13:29:25;22.60;99.90
19966;DHT22;10144;50.874;4.762;2023-07-09T13:31:52;22.70;99.90
19966;DHT22;10144;50.874;4.762;2023-07-09T13:34:22;22.90;99.90
19966;DHT22;10144;50.874;4.762;2023-07-09T13:36:48;23.00;99.90
19966;DHT22;10144;50.874;4.762;2023-07-09T13:39:15;23.20;99.90
19966;DHT22;10144;50.874;4.762;2023-07-09T13:41:43;23.20;99.90
19966;DHT22;10144;50.874;4.762;2023-07-09T13:44:15;23.30;99.90
19966;DHT22;10144;50.874;4.762;2023-07-09T13:46:41;23.40;99.90
19966;DHT22;10144;50.874;4.762;2023-07-09T13:49:19;23.40;99.90
19966;DHT22;10144;50.874;4.762;2023-07-09T13:51:46;23.40;99.90
19966;DHT22;10144;50.874;4.762;2023-07-09T13:54:16;23.40;99.90
19966;DHT22;10144;50.874;4.762;2023-07-09T13:56:42;23.50;99.90
19966;DHT22;10144;50.874;4.762;2023-07-09T13:59:23;23.70;99.90
19966;DHT22;10144;50.874;4.762;2023-07-09T14:01:50;24.10;99.90
19966;DHT22;10144;50.874;4.762;2023-07-09T14:04:18;24.30;99.90
19966;DHT22;10144;50.874;4.762;2023-07-09T14:06:44;24.40;99.90
19966;DHT22;10144;50.874;4.762;2023-07-09T14:09:14;24.50;99.90
19966;DHT22;10144;50.874;4.762;2023-07-09T14:11:46;24.80;99.90
19966;DHT22;10144;50.874;4.762;2023-07-09T14:14:24;25.00;99.90
19966;DHT22;10144;50.874;4.762;2023-07-09T14:16:51;25.30;99.90
19966;DHT22;10144;50.874;4.762;2023-07-09T14:19:21;25.50;99.90
19966;DHT22;10144;50.874;4.762;2023-07-09T14:21:48;25.70;99.90
19966;DHT22;10144;50.874;4.762;2023-07-09T14:24:18;25.80;99.90
19966;DHT22;10144;50.874;4.762;2023-07-09T14:26:44;26.00;99.90
19966;DHT22;10144;50.874;4.762;2023-07-09T14:29:12;26.40;99.90
19966;DHT22;10144;50.874;4.762;2023-07-09T14:31:39;26.60;99.90
19966;DHT22;10144;50.874;4.762;2023-07-09T14:34:26;26.80;99.90
19966;DHT22;10144;50.874;4.762;2023-07-09T14:36:54;26.90;99.90
19966;DHT22;10144;50.874;4.762;2023-07-09T14:39:20;27.00;99.90
19966;DHT22;10144;50.874;4.762;2023-07-09T14:41:46;27.30;99.90
19966;DHT22;10144;50.874;4.762;2023-07-09T14:46:50;27.80;99.90
19966;DHT22;10144;50.874;4.762;2023-07-09T14:49:17;28.00;99.90
19966;DHT22;10144;50.874;4.762;2023-07-09T14:51:44;28.20;99.90
19966;DHT22;10144;50.874;4.762;2023-07-09T14:54:25;28.40;99.90
19966;DHT22;10144;50.874;4.762;2023-07-09T14:56:58;28.50;99.90
19966;DHT22;10144;50.874;4.762;2023-07-09T14:59:25;28.50;99.90
19966;DHT22;10144;50.874;4.762;2023-07-09T15:01:53;28.60;99.90
19966;DHT22;10144;50.874;4.762;2023-07-09T15:06:49;28.80;99.90
19966;DHT22;10144;50.874;4.762;2023-07-09T15:09:16;28.80;99.90
19966;DHT22;10144;50.874;4.762;2023-07-09T15:11:45;28.90;99.90
19966;DHT22;10144;50.874;4.762;2023-07-09T15:14:11;29.20;99.90
19966;DHT22;10144;50.874;4.762;2023-07-09T15:16:37;29.10;99.90
19966;DHT22;10144;50.874;4.762;2023-07-09T15:19:14;28.90;99.90
19966;DHT22;10144;50.874;4.762;2023-07-09T15:21:39;29.10;99.90
19966;DHT22;10144;50.874;4.762;2023-07-09T15:24:14;28.90;99.90
19966;DHT22;10144;50.874;4.762;2023-07-09T15:26:42;28.80;99.90
19966;DHT22;10144;50.874;4.762;2023-07-09T15:29:14;28.50;99.90
19966;DHT22;10144;50.874;4.762;2023-07-09T15:31:40;28.50;99.90
19966;DHT22;10144;50.874;4.762;2023-07-09T15:34:05;28.40;99.90
19966;DHT22;10144;50.874;4.762;2023-07-09T15:36:32;28.30;99.90
19966;DHT22;10144;50.874;4.762;2023-07-09T15:38:58;28.20;99.90
19966;DHT22;10144;50.874;4.762;2023-07-09T15:41:24;28.40;99.90
19966;DHT22;10144;50.874;4.762;2023-07-09T15:43:50;28.40;99.90
19966;DHT22;10144;50.874;4.762;2023-07-09T15:46:18;28.30;99.90
19966;DHT22;10144;50.874;4.762;2023-07-09T15:48:44;28.30;99.90
19966;DHT22;10144;50.874;4.762;2023-07-09T15:51:10;28.40;99.90
19966;DHT22;10144;50.874;4.762;2023-07-09T15:53:37;28.60;99.90
19966;DHT22;10144;50.874;4.762;2023-07-09T15:56:15;28.50;99.90
19966;DHT22;10144;50.874;4.762;2023-07-09T15:58:42;28.70;99.90
19966;DHT22;10144;50.874;4.762;2023-07-09T16:01:14;28.70;99.90
19966;DHT22;10144;50.874;4.762;2023-07-09T16:03:48;28.40;99.90
19966;DHT22;10144;50.874;4.762;2023-07-09T16:06:14;28.30;99.90
19966;DHT22;10144;50.874;4.762;2023-07-09T16:08:40;28.10;99.90
19966;DHT22;10144;50.874;4.762;2023-07-09T16:11:18;28.10;99.90
19966;DHT22;10144;50.874;4.762;2023-07-09T16:13:45;28.00;99.90
19966;DHT22;10144;50.874;4.762;2023-07-09T16:16:19;27.90;99.90
19966;DHT22;10144;50.874;4.762;2023-07-09T16:18:45;27.80;99.90
19966;DHT22;10144;50.874;4.762;2023-07-09T16:21:30;27.70;99.90
19966;DHT22;10144;50.874;4.762;2023-07-09T16:23:58;27.60;99.90